Weather observations for the past three days for
Stafford, Stafford Regional Airport
Metric (Imperial)
Date Time (edt) Wind (kph) Vis. (km) Weather Sky Cond. Temperature (ºC) Relative Humidity Wind Chill (°C) Heat Index (°C) Pressure Precipitation (cm)
Air Dwpt 6 hour altimeter (cm) sea level (mb) 1 hr 3 hr 6 hr
Max. Min.
04 22:35 S 6 16.09 Fair CLR 19.8 5.5 39% 75.84 0.0
04 22:15 SW 6 16.09 Fair CLR 20.5 5 36% 75.84 0.0
04 21:55 Calm 16.09 Fair CLR 20.8 4.6 35% 75.84 0.0
04 21:35 S 6 16.09 Fair CLR 21.2 4 32% 75.84 0.0
04 21:15 S 6 16.09 Fair CLR 21.7 3.3 30% 75.82 0.0
04 20:55 S 9 16.09 Fair CLR 22.1 2.6 28% 75.82 0.0
04 20:35 S 6 16.09 Partly Cloudy SCT100 SCT120 22.5 2.6 27% 75.79 0.0
04 20:15 S 9 16.09 Mostly Cloudy BKN100 BKN120 23.1 2.1 25% 75.79 0.0
04 19:55 S 11 16.09 Overcast BKN095 OVC110 23.7 2.4 26.7 23.7 25% 75.79 0.0
04 19:35 SW 11 16.09 Mostly Cloudy BKN110 23.7 2.1 24% 75.79 0.0
04 19:15 S 13 16.09 Partly Cloudy SCT110 24 1.7 23% 25 75.77 0.0
04 18:55 S 11 16.09 Fair CLR 24.7 1.8 22% 25 75.77 0.0
04 18:35 SW 17 G 30 16.09 Fair CLR 25.1 1.2 21% 25 75.77 0.0
04 18:15 SW 20 G 30 16.09 Fair CLR 25.5 1.4 21% 25 75.77 0.0
04 17:55 SW 17 G 26 16.09 Fair CLR 25.5 0.9 20% 25 75.79 0.0
04 17:35 SW 17 G 28 16.09 Fair CLR 25.8 0.3 19% 25 75.77 0.0
04 17:15 S 15 G 31 16.09 Fair CLR 25.6 0 19% 25 75.82 0.0
04 16:55 S 17 G 26 16.09 Fair CLR 26.1 0.6 19% 26 75.79 0.0
04 16:35 S 15 G 31 16.09 Fair CLR 25.3 0.2 19% 25 75.82 0.0
04 16:15 S 19 G 35 16.09 Fair CLR 25 0.5 20% 25 75.84 0.0
04 15:55 S 20 G 35 16.09 Fair CLR 25.4 -0.1 19% 25 75.82 0.0
04 15:35 SW 15 16.09 Fair CLR 26.5 -0.1 17% 26 75.84 0.0
04 15:15 SW 13 16.09 Fair CLR 25.7 -0.5 18% 25 75.84 0.0
04 14:55 S 13 16.09 Fair CLR 26.3 -0.6 17% 26 75.9 0.0
04 14:35 S 15 G 31 16.09 Fair CLR 25.6 -1 17% 25 75.92 0.0
04 14:15 S 11 G 28 16.09 Fair CLR 25.6 -1.3 17% 25 75.92 0.0
04 13:55 S 13 G 30 16.09 Fair CLR 24.7 -1.7 25 11.8 17% 25 75.97 0.0
04 13:35 SW 13 16.09 Fair CLR 24.4 -1.8 18% 25 75.97 0.0
04 13:15 SW 11 G 26 16.09 Fair CLR 24.2 -0.8 19% 25 76 0.0
04 12:55 SW 17 16.09 Fair CLR 24.4 -0.6 19% 25 76 0.0
04 12:35 S 15 16.09 Fair CLR 23.4 -0.5 21% 76.05 0.0
04 12:15 SW 11 16.09 Fair CLR 23.2 -1.1 20% 76.05 0.0
04 11:55 W 7 16.09 Fair CLR 22.1 -0.9 22% 76.07 0.0
04 11:35 SW 13 16.09 Fair CLR 21.7 -1.2 22% 76.1 0.0
04 11:15 SW 11 16.09 Fair CLR 21.5 -0.5 23% 76.12 0.0
04 10:55 SW 9 16.09 Fair CLR 20.8 0 25% 76.12 0.0
04 10:35 S 11 16.09 Fair CLR 20.1 1.3 29% 76.12 0.0
04 10:15 S 9 16.09 Fair CLR 18.8 1 30% 76.12 0.0
04 09:55 S 6 16.09 Fair CLR 17.6 0.8 32% 76.12 0.0
04 09:35 S 6 16.09 Fair CLR 17 1.5 35% 76.15 0.0
04 09:15 S 7 16.09 Fair CLR 16 1.6 38% 76.17 0.0
04 08:55 S 6 16.09 Fair CLR 14.6 1.2 40% 76.17 0.0
04 08:35 S 9 16.09 Fair CLR 13.7 1.6 44% 76.2 0.0
04 08:15 S 9 16.09 Fair CLR 12.7 2 48% 76.2 0.0
04 07:55 S 6 16.09 Fair CLR 11.6 2.3 11.6 7.6 53% 76.17 0.0
04 07:35 Calm 16.09 Fair CLR 10.8 2.2 56% 76.17 0.0
04 07:15 Calm 16.09 Partly Cloudy SCT090 9.6 1.9 59% 76.2 0.0
04 06:55 SE 6 16.09 Overcast OVC090 9.3 1.8 60% 76.2 0.0
04 06:35 S 6 16.09 Mostly Cloudy BKN100 9 2 62% 76.17 0.0
04 06:15 Calm 16.09 Mostly Cloudy BKN110 9.2 1.7 60% 76.15 0.0
04 05:55 Calm 16.09 Mostly Cloudy BKN110 9.1 1.8 61% 76.15 0.0
04 05:35 SE 6 16.09 Mostly Cloudy BKN110 9.5 1.9 59% 76.2 0.0
04 05:15 SE 6 16.09 Mostly Cloudy SCT100 BKN120 9.1 2 61% 76.2 0.0
04 04:55 Calm 16.09 Overcast OVC100 9.5 1.9 59% 76.17 0.0
04 04:35 Calm 16.09 Overcast OVC100 9.8 2.1 59% 76.2 0.0
04 04:15 Calm 16.09 Overcast OVC100 10 1.8 57% 76.23 0.0
04 03:55 Calm 16.09 Overcast OVC100 9.5 2 60% 76.2 0.0
04 03:35 Calm 16.09 Overcast OVC110 9.5 2.2 61% 76.2 0.0
04 03:15 Calm 16.09 Overcast OVC110 9 2.9 66% 76.2 0.0
04 02:55 SE 6 16.09 Mostly Cloudy BKN110 8.9 3 67% 76.2 0.0
04 02:35 Calm 16.09 Mostly Cloudy BKN110 8.1 3.1 71% 76.23 0.0
04 02:15 Calm 16.09 Overcast OVC120 8.3 2.9 69% 76.23 0.0
04 01:55 Calm 16.09 Overcast OVC120 8.1 3.1 14 5.6 71% 76.23 0.0
04 01:35 Calm 16.09 Mostly Cloudy BKN120 7.8 2.5 69% 76.23 0.0
04 01:15 Calm 16.09 Mostly Cloudy BKN120 8.5 2 64% 76.23 0.0
04 00:55 Calm 16.09 Partly Cloudy SCT120 7.5 2.8 72% 76.2 0.0
04 00:35 Calm 16.09 Fair CLR 7.2 1.9 69% 76.23 0.0
04 00:15 Calm 16.09 Fair CLR 6.3 2.3 76% 76.2 0.0
03 23:55 Calm 16.09 Fair CLR 6.5 1.9 73% 76.2 0.0
03 23:35 Calm 16.09 Fair CLR 5.6 1.3 74% 76.2 0.0
03 23:15 NW 6 16.09 Fair CLR 6 1.2 72% 76.17 0.0
03 22:55 Calm 16.09 Fair CLR 6.2 1.2 71% 76.17 0.0
03 22:35 Calm 16.09 Fair CLR 6.5 1.2 69% 76.17 0.0
03 22:15 Calm 16.09 Fair CLR 6.5 1.3 70% 76.2 0.0
03 21:55 Calm 16.09 Fair CLR 8.2 1.1 61% 76.15 0.0
03 21:35 Calm 16.09 Fair CLR 8.8 1.4 60% 76.17 0.0
03 21:15 Calm 16.09 Fair CLR 9.7 0.4 53% 76.12 0.0
03 20:55 Calm 16.09 Fair CLR 9.9 0.5 52% 76.12 0.0
03 20:35 Calm 16.09 Fair CLR 11 0.6 49% 76.12 0.0
03 20:15 Calm 16.09 Fair CLR 12.5 0 43% 76.1 0.0
03 19:55 Calm 16.09 Fair CLR 14.3 -2 18.6 14.3 33% 76.1 0.0
03 19:35 Calm 16.09 Fair CLR 16.9 -6.8 19% 76.1 0.0
03 19:15 Calm 16.09 Fair CLR 17 -6.9 19% 76.07 0.0
03 18:55 Calm 16.09 Fair CLR 17.4 -8.3 17% 76.12 0.0
03 18:35 SW 13 16.09 Fair CLR 17.8 -7.8 17% 76.1 0.0
03 18:15 Calm 16.09 Fair CLR 17.9 -8.8 15% 76.1 0.0
03 17:55 W 6 16.09 Fair CLR 18 -8.3 16% 76.12 0.0
03 17:35 W 9 16.09 Fair CLR 18.1 -8.3 16% 76.12 0.0
03 17:15 NW 6 16.09 Fair CLR 18 -8 16% 76.12 0.0
03 16:55 NW 11 16.09 Fair CLR 18 -7.8 17% 76.12 0.0
03 16:35 W 15 16.09 Fair CLR 17.9 -8 16% 76.12 0.0
03 16:15 W 13 16.09 Fair CLR 17.7 -7.7 17% 76.17 0.0
03 15:55 NW 6 16.09 Partly Cloudy SCT075 17.6 -7.9 17% 76.2 0.0
03 15:35 SW 13 16.09 Partly Cloudy SCT075 16.9 -7.2 19% 76.2 0.0
03 14:55 Calm 16.09 Partly Cloudy SCT075 16.8 -7.6 18% 76.25 0.0
03 14:35 W 7 16.09 Partly Cloudy SCT075 16.5 -7.2 19% 76.28 0.0
03 14:15 W 11 16.09 Partly Cloudy SCT075 16.7 -7.4 19% 76.28 0.0
03 13:55 NW 20 G 28 16.09 Fair CLR 16.3 -7.7 16.3 8.1 19% 76.28 0.0
03 13:35 W 7 16.09 Partly Cloudy SCT070 16 -6.9 20% 76.28 0.0
03 13:15 W 9 G 28 16.09 Partly Cloudy SCT070 15.1 -7 21% 76.33 0.0
03 12:55 N 11 G 30 16.09 Fair CLR 15.4 -6.8 21% 76.33 0.0
03 12:35 NW 6 G 43 16.09 Fair CLR 14.5 -7.2 22% 76.33 0.0
03 12:15 W 13 16.09 Partly Cloudy SCT065 14.1 -6.6 23% 76.35 0.0
03 11:55 NW 17 G 28 16.09 Partly Cloudy SCT065 13.9 -6.9 23% 76.35 0.0
03 11:35 NW 15 G 26 16.09 Partly Cloudy SCT055 13.4 -6.3 25% 76.38 0.0
03 11:15 N 17 G 26 16.09 Mostly Cloudy BKN055 12 -5.8 29% 76.38 0.0
03 10:55 W 11 G 28 16.09 Mostly Cloudy BKN055 12 -5.3 30% 76.4 0.0
03 10:35 NW 13 G 26 16.09 Mostly Cloudy BKN055 11.4 -4.7 32% 76.38 0.0
03 10:15 N 22 G 33 16.09 Partly Cloudy SCT060 SCT065 12 -4.9 31% 76.38 0.0
03 09:55 NW 13 16.09 Partly Cloudy SCT049 11.3 -3.3 36% 76.35 0.0
03 09:35 NW 13 16.09 Partly Cloudy SCT049 10.1 -2.9 40% 76.35 0.0
03 09:15 NW 20 G 30 16.09 Fair CLR 10.3 -3.7 37% 76.4 0.0
03 08:55 NW 15 16.09 Partly Cloudy SCT042 9.8 -2.3 43% 8 76.35 0.0
03 08:35 NW 13 16.09 Fair CLR 9.2 -1 49% 7 76.38 0.0
03 08:15 NW 11 16.09 Fair CLR 9 -0.8 51% 8 76.38 0.0
03 07:55 Calm 16.09 Fair CLR 8.1 -0.6 8.6 3.2 55% 76.38 0.0
03 07:35 Calm 16.09 Fair CLR 7 -0.6 59% 76.35 0.0
03 07:15 Calm 16.09 Fair CLR 5.8 -0.5 64% 76.33 0.0
03 06:55 NW 6 16.09 Partly Cloudy SCT080 4.4 -0.9 69% 76.28 0.0
03 06:35 W 6 16.09 Mostly Cloudy BKN080 4.5 -0.9 68% 76.28 0.0
03 06:15 NW 6 16.09 Fair CLR 3.9 -1 71% 76.23 0.0
03 05:55 NW 6 16.09 Fair CLR 4.4 -1.1 68% 76.2 0.0
03 05:35 Calm 16.09 Fair CLR 3.8 -1.2 70% 76.2 0.0
03 05:15 NW 6 16.09 Fair CLR 4 -1.4 68% 76.17 0.0
03 04:55 Calm 16.09 Fair CLR 4.4 -1.1 68% 76.15 0.0
03 04:35 Calm 16.09 Fair CLR 5 -1 66% 76.15 0.0
03 04:15 NW 6 16.09 Fair CLR 4.5 -1.5 65% 76.12 0.0
03 03:55 NW 7 16.09 Fair CLR 4.7 -1.7 64% 3 76.12 0.0
03 03:35 Calm 16.09 Fair CLR 5.3 -1.6 61% 76.12 0.0
03 02:55 NW 7 16.09 Overcast OVC100 7.4 -1.5 54% 6 76.1 0.0
03 02:35 NW 7 16.09 Overcast OVC100 7.9 -1.4 52% 7 76.1 0.0
03 02:15 NW 7 16.09 Overcast SCT070 OVC100 8.2 -2 49% 7 76.07 0.0
03 01:55 NW 13 16.09 Mostly Cloudy SCT070 BKN100 8.5 -2.1 13.5 8.5 48% 7 76.07 0.0
03 01:35 NW 17 16.09 Partly Cloudy SCT100 8.8 -2 47% 7 76.1 0.0
03 01:15 N 13 16.09 Overcast OVC100 9.3 -2 45% 8 76.07 0.0
03 00:55 N 19 16.09 Overcast OVC100 10 -2 43% 8 76.07 0.0
03 00:35 N 13 G 26 16.09 Overcast OVC090 10.6 -1.9 42% 76.07 0.0
03 00:15 N 13 16.09 Overcast SCT080 OVC090 11 -1.4 42% 76.07 0.0
02 23:55 N 9 16.09 Overcast SCT080 BKN095 OVC110 11.1 -1.2 43% 76.05 0.0
02 23:35 NW 9 16.09 Overcast SCT080 OVC095 11.5 -1.2 42% 76.05 0.0
02 23:15 N 11 16.09 Overcast OVC095 11.6 -1 42% 76.02 0.0
02 22:55 N 11 16.09 Overcast OVC095 11.5 -0.6 43% 76.05 0.0
02 22:35 NW 7 16.09 Overcast OVC085 11.9 -0.5 43% 76.02 0.0
02 22:15 N 7 16.09 Overcast OVC095 12 -0.4 43% 76.02 0.0
02 21:55 N 7 16.09 Overcast OVC095 12 -0.3 43% 76.02 0.0
02 21:35 N 7 16.09 Overcast OVC095 12 -0.1 44% 76.02 0.0
02 21:15 N 7 16.09 Overcast OVC095 12 0.6 46% 76 0.0
02 20:55 N 6 16.09 Overcast OVC095 12.4 -0.4 42% 76 0.0
02 20:35 Calm 16.09 Overcast SCT085 OVC090 12.8 -1.1 38% 75.95 0.0
02 20:15 N 6 16.09 Overcast BKN085 OVC095 13 -1 38% 75.92 0.0
02 19:55 N 7 16.09 Mostly Cloudy SCT075 BKN095 13.6 -2.3 17 13.5 33% 75.92 0.0
02 19:35 N 13 16.09 Fair CLR 14 -2.6 32% 75.9 0.0
02 19:15 N 17 16.09 Fair CLR 14.5 -3 30% 75.92 0.0
02 18:55 N 11 16.09 Fair CLR 14.7 -3 30% 75.9 0.0
02 18:35 N 11 16.09 Fair CLR 14.7 -3.3 29% 75.87 0.0
02 18:15 N 15 16.09 Partly Cloudy SCT080 15.4 -3.5 27% 75.87 0.0
02 17:55 NW 7 16.09 Partly Cloudy SCT070 15.4 -3.5 27% 75.87 0.0
02 17:35 NE 15 16.09 Partly Cloudy SCT070 15.7 -3.7 26% 75.87 0.0
02 17:15 N 19 16.09 Partly Cloudy SCT070 16.4 -3.6 25% 75.87 0.0
02 16:55 NW 9 16.09 Partly Cloudy SCT070 16 -3.4 26% 75.9 0.0
02 16:35 N 20 16.09 Mostly Cloudy BKN070 16.8 -3.3 25% 75.87 0.0
02 16:15 N 9 16.09 Overcast OVC060 16 -3.2 27% 75.9 0.0
02 15:55 NW 6 G 15 16.09 Overcast OVC060 15.6 -2.7 29% 75.92 0.0
02 15:35 N 6 16.09 Partly Cloudy SCT060 16.5 -2.4 28% 75.95 0.0
02 15:15 NW 7 16.09 Partly Cloudy SCT060 16 -3 27% 75.95 0.0
02 14:55 N 15 16.09 Mostly Cloudy BKN060 16 -2.8 28% 76 0.0
02 14:35 Calm 16.09 Partly Cloudy SCT060 14.5 -2.8 30% 76.02 0.0
02 14:15 N 13 16.09 Partly Cloudy SCT055 15.4 -1.7 31% 76.02 0.0
02 13:55 NW 7 16.09 Partly Cloudy SCT055 15.3 -1.2 15.5 9.3 32% 76.07 0.0
02 13:35 NW 17 16.09 Fair CLR 15.2 -1.8 31% 76.07 0.0
02 13:15 NW 15 16.09 Fair CLR 14.5 -1.7 33% 76.1 0.0
02 12:55 NW 15 16.09 Fair CLR 14.1 -2.4 32% 76.07 0.0
02 12:35 NW 6 16.09 Fair CLR 14.3 -0.8 36% 76.12 0.0
02 12:15 N 13 G 26 16.09 Fair CLR 14.2 -1.3 35% 76.12 0.0
02 11:55 N 9 16.09 Fair CLR 13.8 -0.7 37% 76.12 0.0
02 11:35 N 13 16.09 Fair CLR 13.7 -0.5 38% 76.12 0.0
02 11:15 N 11 16.09 Fair CLR 13 -0.3 40% 76.15 0.0
02 10:55 N 11 16.09 Fair CLR 12.6 0.5 44% 76.15 0.0
02 10:35 NW 9 16.09 Fair CLR 12.2 0.5 45% 76.15 0.0
02 10:15 N 15 G 26 16.09 Fair CLR 12 0.8 47% 76.1 0.0
02 09:55 NW 15 16.09 Fair CLR 12 1.1 48% 76.12 0.0
02 09:35 N 17 16.09 Fair CLR 11.4 1.7 52% 76.12 0.0
02 09:15 N 13 16.09 Fair CLR 11 2.6 56% 76.1 0.0
02 08:55 N 15 16.09 Fair CLR 10.1 2.1 58% 76.12 0.0
02 08:35 N 13 16.09 Fair CLR 10 1.7 57% 8 76.1 0.0
02 08:15 N 13 G 28 16.09 Fair CLR 9.8 2 59% 8 76.12 0.0
02 07:55 N 17 G 26 16.09 Fair CLR 9.5 1.7 11 9 59% 7 76.12 0.0 0.05
02 07:35 N 19 16.09 Fair CLR 9.2 1.5 59% 7 76.12 0.0
02 07:15 N 19 G 26 16.09 Fair CLR 9.2 1.8 60% 7 76.1 0.0
02 06:55 N 19 16.09 Fair CLR 9.2 2.1 61% 7 76.1 0.0
02 06:35 N 19 G 28 16.09 Fair CLR 9.5 2.5 62% 7 76.05 0.0
02 06:15 N 13 16.09 Fair CLR 9.7 3.3 65% 8 76.02 0.0
02 05:55 N 11 16.09 Fair CLR 9.5 4.3 70% 8 76 0.0
02 05:35 N 9 16.09 Partly Cloudy SCT100 10 4.8 70% 9 76 0.0
02 05:15 N 11 16.09 Mostly Cloudy BKN100 10 5.3 73% 9 76 0.0
02 04:55 N 9 16.09 Overcast OVC110 10 6.2 77% 9 76 0.0 0.05
02 04:35 N 7 16.09 Mostly Cloudy BKN110 9.8 6.5 80% 9 75.97 0.0
02 04:15 N 7 16.09 Partly Cloudy SCT110 10 6.4 79% 9 75.97 0.0
02 03:55 N 7 16.09 Partly Cloudy SCT110 9.4 6.6 83% 9 75.92 0.0 0.05
02 03:35 N 7 16.09 Partly Cloudy SCT090 SCT110 9.3 7.6 89% 9 75.95 0.0 0.05
02 03:15 N 6 16.09 Partly Cloudy SCT110 9 7.5 90% 75.95 0.0 0.05
02 02:55 Calm 16.09 Partly Cloudy SCT110 9.3 7.8 90% 75.92 0.0
02 02:35 NW 6 16.09 Partly Cloudy SCT055 10.1 8.4 89% 75.92 0.0
02 02:15 Calm 16.09 Overcast BKN055 OVC110 10.8 9.3 91% 76 0.0
02 01:55 Calm 16.09 Overcast SCT055 BKN095 OVC120 11 9.1 17.5 11 88% 75.95 0.0 0.15
02 01:35 Calm 16.09 Overcast SCT095 OVC120 11 8.9 87% 75.95 0.0
02 01:15 Calm 16.09 Overcast SCT050 BKN090 OVC110 11.4 8.7 84% 75.95 0.0
02 00:55 N 9 16.09 Light Drizzle SCT050 SCT070 OVC090 11.9 8.7 81% 75.95 0.0 0.15
02 00:35 N 6 16.09 Light Rain SCT048 BKN060 OVC095 11.8 8.6 81% 75.95 0.0 0.15
02 00:15 Calm 11.27 Heavy Rain SCT048 OVC075 13.5 5 57% 75.95 0.0 0.05
01 23:55 NW 7 16.09 Overcast BKN075 BKN090 OVC110 13.1 4 54% 75.92 0.0
01 23:35 NE 7 16.09 Overcast BKN075 OVC090 13.7 3.2 49% 75.95 0.0
01 22:55 Calm 16.09 Mostly Cloudy SCT090 BKN120 13.5 2.8 49% 75.84 0.0
Date Time (edt) Wind (kph) Vis. (km) Weather Sky Cond. Air Dwpt Max. Min. Relative Humidity Wind Chill (°C) Heat Index (°C) altimeter (cm) sea level (mb) 1 hr 3 hr 6 hr
6 hour
Temperature (ºC) Pressure Precipitation (cm)